createdAt,value
2022-09-15T00:00:29.951Z,15.46
2022-09-15T00:02:56.524Z,15.47
2022-09-15T00:05:23.283Z,15.47
2022-09-15T00:07:49.740Z,15.47
2022-09-15T00:10:17.478Z,15.45
2022-09-15T00:12:44.072Z,15.46
2022-09-15T00:15:14.853Z,15.42
2022-09-15T00:17:43.271Z,15.43
2022-09-15T00:20:10.715Z,15.46
2022-09-15T00:22:37.573Z,15.39
2022-09-15T00:25:04.525Z,15.42
2022-09-15T00:27:32.341Z,15.42
2022-09-15T00:29:58.949Z,15.44
2022-09-15T00:32:25.711Z,15.45
2022-09-15T00:34:53.634Z,15.46
2022-09-15T00:37:20.885Z,15.46
2022-09-15T00:40:12.419Z,15.45
2022-09-15T00:42:38.962Z,15.42
2022-09-15T00:45:16.074Z,15.43
2022-09-15T00:47:43.434Z,15.43
2022-09-15T00:50:13.902Z,15.38
2022-09-15T00:53:01.901Z,15.40
2022-09-15T00:55:37.901Z,15.39
2022-09-15T00:58:14.218Z,15.40
2022-09-15T01:00:45.929Z,15.38
2022-09-15T01:03:12.842Z,15.38
2022-09-15T01:05:47.448Z,15.37
2022-09-15T01:08:26.275Z,15.36
2022-09-15T01:10:53.061Z,15.36
2022-09-15T01:13:19.560Z,15.33
2022-09-15T01:15:53.023Z,15.31
2022-09-15T01:18:30.513Z,15.31
2022-09-15T01:21:14.008Z,15.34
2022-09-15T01:24:17.793Z,15.35
2022-09-15T01:27:18.724Z,15.32
2022-09-15T01:30:14.132Z,15.31
2022-09-15T01:33:13.139Z,15.28
2022-09-15T01:35:51.795Z,15.28
2022-09-15T01:38:24.943Z,15.27
2022-09-15T01:40:57.553Z,15.20
2022-09-15T01:43:26.459Z,15.19
2022-09-15T01:45:53.417Z,15.20
2022-09-15T01:48:23.917Z,15.17
2022-09-15T01:50:54.888Z,15.19
2022-09-15T01:53:23.403Z,15.18
2022-09-15T01:56:22.389Z,15.15
2022-09-15T01:58:51.271Z,14.97
2022-09-15T02:01:26.681Z,14.88
2022-09-15T02:03:58.350Z,14.84
2022-09-15T02:06:36.081Z,14.90
2022-09-15T02:09:24.211Z,14.99
2022-09-15T02:12:02.889Z,14.98
2022-09-15T02:14:43.175Z,14.91
2022-09-15T02:17:15.227Z,14.98
2022-09-15T02:19:48.741Z,15.00
2022-09-15T02:22:35.221Z,15.06
2022-09-15T02:25:13.004Z,15.08
2022-09-15T02:27:52.765Z,15.08
2022-09-15T02:30:20.520Z,15.04
2022-09-15T02:32:56.277Z,15.09
2022-09-15T02:35:25.234Z,15.04
2022-09-15T02:37:53.029Z,15.07
2022-09-15T02:40:38.330Z,15.04
2022-09-15T02:43:09.754Z,15.03
2022-09-15T02:45:48.842Z,15.01
2022-09-15T02:48:25.584Z,14.96
2022-09-15T02:54:00.927Z,14.99
2022-09-15T02:56:27.625Z,14.98
2022-09-15T02:59:05.964Z,14.97
2022-09-15T03:01:43.560Z,14.94
2022-09-15T03:04:12.880Z,14.96
2022-09-15T03:06:39.894Z,14.94
2022-09-15T03:09:08.327Z,14.97
2022-09-15T03:11:42.951Z,14.93
2022-09-15T03:14:09.710Z,14.93
2022-09-15T03:16:59.526Z,14.96
2022-09-15T03:19:51.487Z,14.98
2022-09-15T03:25:23.410Z,14.92
2022-09-15T03:28:14.894Z,14.92
2022-09-15T03:30:42.664Z,14.88
2022-09-15T03:33:09.285Z,14.94
2022-09-15T03:35:45.551Z,14.88
2022-09-15T03:38:20.213Z,14.93
2022-09-15T03:41:05.026Z,14.93
2022-09-15T03:43:38.461Z,14.94
2022-09-15T03:46:20.605Z,14.87
2022-09-15T03:48:50.933Z,14.89
2022-09-15T03:51:41.848Z,14.84
2022-09-15T03:57:08.969Z,14.80
2022-09-15T03:59:53.178Z,14.82
2022-09-15T04:02:30.712Z,14.77
2022-09-15T04:05:09.616Z,14.67
2022-09-15T04:07:59.320Z,14.62
2022-09-15T04:10:46.922Z,14.67
2022-09-15T04:13:28.680Z,14.67
2022-09-15T04:16:19.410Z,14.77
2022-09-15T04:18:47.072Z,14.77
2022-09-15T04:21:26.017Z,14.75
2022-09-15T04:24:17.990Z,14.83
2022-09-15T04:26:49.791Z,14.84
2022-09-15T04:29:25.983Z,14.88
2022-09-15T04:31:58.777Z,14.84
2022-09-15T04:34:51.004Z,14.88
2022-09-15T04:37:17.538Z,14.92
2022-09-15T04:39:44.554Z,14.93
2022-09-15T04:42:11.105Z,14.93
2022-09-15T04:44:37.578Z,14.94
2022-09-15T04:47:04.389Z,14.85
2022-09-15T04:49:31.756Z,14.92
2022-09-15T04:51:58.263Z,14.85
2022-09-15T04:54:24.929Z,14.80
2022-09-15T04:56:51.430Z,14.85
2022-09-15T04:59:19.075Z,14.90
2022-09-15T05:01:46.319Z,14.86
2022-09-15T05:04:14.293Z,14.86
2022-09-15T05:06:41.130Z,14.89
2022-09-15T05:09:10.528Z,14.86
2022-09-15T05:11:39.823Z,14.81
2022-09-15T05:14:06.999Z,14.85
2022-09-15T05:16:33.923Z,14.70
2022-09-15T05:19:03.149Z,14.76
2022-09-15T05:21:29.997Z,14.77
2022-09-15T05:23:57.070Z,14.73
2022-09-15T05:26:27.123Z,14.82
2022-09-15T05:28:54.106Z,14.84
2022-09-15T05:31:25.000Z,14.85
2022-09-15T05:33:53.172Z,14.83
2022-09-15T05:36:23.783Z,14.85
2022-09-15T05:38:50.770Z,14.86
2022-09-15T05:41:18.732Z,14.92
2022-09-15T05:43:49.288Z,14.88
2022-09-15T05:46:17.343Z,14.87
2022-09-15T05:48:45.887Z,14.90
2022-09-15T05:51:14.129Z,14.90
2022-09-15T05:53:40.821Z,14.89
2022-09-15T05:56:12.087Z,14.91
2022-09-15T05:58:40.776Z,14.91
2022-09-15T06:01:11.333Z,14.92
2022-09-15T06:03:37.837Z,14.87
2022-09-15T06:06:06.232Z,14.86
2022-09-15T06:08:35.344Z,14.84
2022-09-15T06:11:29.424Z,14.87
2022-09-15T06:13:58.622Z,14.89
2022-09-15T06:16:25.411Z,14.94
2022-09-15T06:18:53.553Z,14.89
2022-09-15T06:21:26.079Z,14.92
2022-09-15T06:24:00.827Z,14.95
2022-09-15T06:26:28.041Z,15.01
2022-09-15T06:29:00.583Z,14.99
2022-09-15T06:31:28.530Z,14.99
2022-09-15T06:34:09.697Z,15.02
2022-09-15T06:36:37.914Z,14.97
2022-09-15T06:39:05.065Z,15.03
2022-09-15T06:41:52.556Z,15.04
2022-09-15T06:44:19.466Z,15.14
2022-09-15T06:46:46.251Z,15.20
2022-09-15T06:49:12.801Z,15.17
2022-09-15T06:51:39.339Z,15.21
2022-09-15T06:54:06.325Z,15.23
2022-09-15T06:56:37.610Z,15.24
2022-09-15T06:59:04.703Z,15.32
2022-09-15T07:01:32.243Z,15.34
2022-09-15T07:04:01.026Z,15.41
2022-09-15T07:06:29.330Z,15.43
2022-09-15T07:08:56.712Z,15.51
2022-09-15T07:11:23.242Z,15.65
2022-09-15T07:13:50.164Z,15.64
2022-09-15T07:16:18.960Z,15.74
2022-09-15T07:18:46.431Z,15.74
2022-09-15T07:21:16.335Z,15.87
2022-09-15T07:23:43.538Z,15.92
2022-09-15T07:26:14.440Z,15.94
2022-09-15T07:28:43.014Z,16.02
2022-09-15T07:31:13.539Z,16.05
2022-09-15T07:33:40.090Z,16.07
2022-09-15T07:36:08.318Z,16.14
2022-09-15T07:38:38.394Z,16.24
2022-09-15T07:41:06.956Z,16.29
2022-09-15T07:43:33.756Z,16.39
2022-09-15T07:46:01.653Z,16.45
2022-09-15T07:48:28.687Z,16.43
2022-09-15T07:50:55.280Z,16.43
2022-09-15T07:53:22.038Z,16.48
2022-09-15T07:55:55.161Z,16.47
2022-09-15T07:58:22.633Z,16.51
2022-09-15T08:00:49.788Z,16.56
2022-09-15T08:03:16.697Z,16.67
2022-09-15T08:05:45.636Z,16.74
2022-09-15T08:08:13.040Z,16.80
2022-09-15T08:10:41.550Z,16.82
2022-09-15T08:13:08.902Z,16.90
2022-09-15T08:15:38.858Z,16.97
2022-09-15T08:18:23.785Z,17.00
2022-09-15T08:20:54.281Z,17.03
2022-09-15T08:23:50.351Z,17.08
2022-09-15T08:26:22.266Z,17.14
2022-09-15T08:28:52.088Z,17.21
2022-09-15T08:31:22.111Z,17.21
2022-09-15T08:33:50.321Z,17.31
2022-09-15T08:36:17.081Z,17.43
2022-09-15T08:38:45.339Z,17.43
2022-09-15T08:41:24.331Z,17.55
2022-09-15T08:43:54.319Z,17.64
2022-09-15T08:46:27.609Z,17.75
2022-09-15T08:49:03.410Z,17.74
2022-09-15T08:51:40.413Z,17.78
2022-09-15T08:54:14.852Z,17.83
2022-09-15T08:56:43.515Z,17.81
2022-09-15T08:59:14.837Z,17.94
2022-09-15T09:01:47.485Z,17.98
2022-09-15T09:04:33.964Z,17.86
2022-09-15T09:07:25.346Z,17.89
2022-09-15T09:10:01.619Z,17.89
2022-09-15T09:12:44.974Z,17.82
2022-09-15T09:15:35.974Z,17.70
2022-09-15T09:18:20.669Z,17.50
2022-09-15T09:20:50.173Z,17.79
2022-09-15T09:23:23.878Z,17.59
2022-09-15T09:25:52.234Z,17.44
2022-09-15T09:28:34.895Z,17.78
2022-09-15T09:31:07.147Z,17.80
2022-09-15T09:33:38.635Z,17.79
2022-09-15T09:36:10.487Z,17.80
2022-09-15T09:38:39.760Z,17.97
2022-09-15T09:41:25.544Z,18.15
2022-09-15T09:43:54.247Z,18.28
2022-09-15T09:46:22.278Z,18.39
2022-09-15T09:49:01.408Z,18.62
2022-09-15T09:52:23.073Z,18.82
2022-09-15T09:55:09.464Z,18.94
2022-09-15T09:57:53.124Z,19.07
2022-09-15T10:01:02.100Z,19.10
2022-09-15T10:03:32.825Z,19.27
2022-09-15T10:06:26.123Z,18.93
2022-09-15T10:09:31.187Z,18.93
2022-09-15T10:12:03.875Z,19.36
2022-09-15T10:14:33.420Z,19.47
2022-09-15T10:16:59.975Z,19.48
2022-09-15T10:19:28.585Z,19.49
2022-09-15T10:21:56.437Z,19.40
2022-09-15T10:24:41.373Z,19.44
2022-09-15T10:27:15.947Z,19.60
2022-09-15T10:29:42.658Z,19.84
2022-09-15T10:32:25.409Z,19.73
2022-09-15T10:35:09.673Z,20.00
2022-09-15T10:38:20.315Z,20.29
2022-09-15T10:40:56.809Z,20.49
2022-09-15T10:43:52.895Z,20.60
2022-09-15T10:46:28.214Z,20.63
2022-09-15T10:49:16.024Z,20.39
2022-09-15T10:52:03.889Z,20.72
2022-09-15T10:54:57.289Z,20.40
2022-09-15T10:57:39.223Z,20.51
2022-09-15T11:00:11.009Z,20.53
2022-09-15T11:02:40.605Z,20.58
2022-09-15T11:05:28.728Z,20.76
2022-09-15T11:08:31.886Z,20.91
2022-09-15T11:11:15.655Z,21.01
2022-09-15T11:13:56.141Z,21.05
2022-09-15T11:17:01.163Z,20.95
2022-09-15T11:19:47.497Z,21.21
2022-09-15T11:22:22.739Z,21.48
2022-09-15T11:24:57.541Z,21.02
2022-09-15T11:27:32.430Z,20.66
2022-09-15T11:30:18.921Z,20.87
2022-09-15T11:33:03.325Z,21.21
2022-09-15T11:36:17.985Z,20.92
2022-09-15T11:38:55.535Z,21.05
2022-09-15T11:41:35.163Z,21.43
2022-09-15T11:44:16.706Z,21.55
2022-09-15T11:47:04.672Z,21.59
2022-09-15T11:49:43.493Z,21.61
2022-09-15T11:53:00.705Z,21.47
2022-09-15T11:55:35.713Z,21.90
2022-09-15T11:58:11.991Z,21.76
2022-09-15T12:00:44.762Z,21.85
2022-09-15T12:03:28.777Z,22.18
2022-09-15T12:06:09.838Z,22.21
2022-09-15T12:08:37.510Z,22.48
2022-09-15T12:11:10.834Z,22.30
2022-09-15T12:13:39.119Z,22.01
2022-09-15T12:16:06.215Z,22.33
2022-09-15T12:18:56.062Z,22.34
2022-09-15T12:21:59.824Z,22.38
2022-09-15T12:24:47.138Z,21.91
2022-09-15T12:27:25.061Z,21.60
2022-09-15T12:29:54.533Z,22.09
2022-09-15T12:33:03.350Z,22.37
2022-09-15T12:35:58.457Z,22.75
2022-09-15T12:38:47.835Z,22.83
2022-09-15T12:41:14.423Z,22.43
2022-09-15T12:43:41.203Z,22.37
2022-09-15T12:46:18.636Z,22.63
2022-09-15T12:48:47.385Z,23.15
2022-09-15T12:51:24.055Z,22.27
2022-09-15T12:53:57.940Z,22.72
2022-09-15T12:56:31.300Z,23.10
2022-09-15T12:59:07.811Z,22.56
2022-09-15T13:01:55.607Z,22.30
2022-09-15T13:04:51.102Z,22.42
2022-09-15T13:07:18.664Z,21.85
2022-09-15T13:09:55.791Z,22.24
2022-09-15T13:12:31.277Z,21.82
2022-09-15T13:15:02.228Z,22.30
2022-09-15T13:17:30.155Z,22.54
2022-09-15T13:20:03.146Z,22.79
2022-09-15T13:22:35.549Z,22.35
2022-09-15T13:25:18.075Z,22.28
2022-09-15T13:27:56.764Z,22.30
2022-09-15T13:30:49.481Z,21.54
2022-09-15T13:35:00.139Z,21.11
2022-09-15T13:36:24.044Z,20.91
2022-09-15T13:39:32.843Z,21.86
2022-09-15T13:42:22.893Z,22.35
2022-09-15T13:45:07.806Z,22.13
2022-09-15T13:47:56.090Z,22.14
2022-09-15T13:51:17.744Z,22.23
2022-09-15T13:54:01.538Z,21.96
2022-09-15T13:56:46.823Z,22.45
2022-09-15T13:59:18.914Z,22.06
2022-09-15T14:01:48.961Z,22.01
2022-09-15T14:04:23.107Z,21.23
2022-09-15T14:06:53.620Z,21.42
2022-09-15T14:09:43.537Z,21.13
2022-09-15T14:12:13.468Z,21.89
2022-09-15T14:14:44.575Z,21.97
2022-09-15T14:17:20.864Z,21.96
2022-09-15T14:20:00.876Z,21.23
2022-09-15T14:22:36.102Z,21.82
2022-09-15T14:25:15.178Z,22.15
2022-09-15T14:27:45.716Z,22.04
2022-09-15T14:30:26.974Z,21.93
2022-09-15T14:33:00.690Z,21.95
2022-09-15T14:35:31.810Z,22.26
2022-09-15T14:38:04.961Z,21.67
2022-09-15T14:40:36.044Z,21.77
2022-09-15T14:43:03.430Z,21.47
2022-09-15T14:48:28.306Z,21.52
2022-09-15T14:51:04.795Z,21.63
2022-09-15T14:53:38.226Z,22.03
2022-09-15T14:56:13.278Z,21.91
2022-09-15T14:58:50.941Z,21.26
2022-09-15T15:01:25.595Z,21.26
2022-09-15T15:04:13.417Z,21.99
2022-09-15T15:06:53.983Z,21.69
2022-09-15T15:09:29.022Z,22.01
2022-09-15T15:12:03.345Z,21.74
2022-09-15T15:14:30.632Z,21.80
2022-09-15T15:17:06.169Z,22.13
2022-09-15T15:19:51.947Z,21.82
2022-09-15T15:22:37.940Z,21.57
2022-09-15T15:25:40.200Z,21.19
2022-09-15T15:28:06.868Z,21.09
2022-09-15T15:30:44.966Z,20.22
2022-09-15T15:33:25.224Z,20.92
2022-09-15T15:36:12.123Z,21.01
2022-09-15T15:38:47.377Z,21.00
2022-09-15T15:41:26.693Z,20.98
2022-09-15T15:44:22.702Z,20.83
2022-09-15T15:46:57.631Z,20.33
2022-09-15T15:49:29.225Z,20.38
2022-09-15T15:52:00.351Z,20.61
2022-09-15T15:54:27.365Z,20.96
2022-09-15T15:57:35.976Z,20.92
2022-09-15T16:00:02.872Z,20.67
2022-09-15T16:02:31.504Z,20.92
2022-09-15T16:04:58.076Z,20.88
2022-09-15T16:07:29.908Z,20.32
2022-09-15T16:10:00.457Z,20.78
2022-09-15T16:12:30.715Z,20.34
2022-09-15T16:14:59.825Z,20.32
2022-09-15T16:17:26.469Z,20.59
2022-09-15T16:19:53.034Z,20.52
2022-09-15T16:22:20.965Z,20.78
2022-09-15T16:24:47.806Z,20.42
2022-09-15T16:27:16.941Z,20.56
2022-09-15T16:29:46.967Z,20.59
2022-09-15T16:32:21.455Z,20.25
2022-09-15T16:34:51.233Z,20.48
2022-09-15T16:37:18.207Z,20.36
2022-09-15T16:39:44.793Z,20.09
2022-09-15T16:42:11.247Z,19.98
2022-09-15T16:44:38.764Z,20.24
2022-09-15T16:47:06.620Z,19.71
2022-09-15T16:49:37.403Z,19.60
2022-09-15T16:52:04.104Z,19.20
2022-09-15T16:54:42.799Z,19.39
2022-09-15T16:57:09.330Z,19.71
2022-09-15T16:59:36.266Z,19.38
2022-09-15T17:02:02.800Z,19.34
2022-09-15T17:04:29.308Z,19.49
2022-09-15T17:06:55.809Z,19.61
2022-09-15T17:09:22.246Z,19.40
2022-09-15T17:11:48.839Z,19.10
2022-09-15T17:14:16.532Z,19.07
2022-09-15T17:16:52.824Z,18.99
2022-09-15T17:19:24.885Z,18.91
2022-09-15T17:21:52.858Z,19.18
2022-09-15T17:24:25.672Z,18.84
2022-09-15T17:26:58.498Z,18.91
2022-09-15T17:29:45.650Z,18.56
2022-09-15T17:32:26.444Z,18.63
2022-09-15T17:34:53.171Z,18.78
2022-09-15T17:37:19.953Z,18.64
2022-09-15T17:40:09.513Z,18.77
2022-09-15T17:42:54.180Z,18.66
2022-09-15T17:45:34.287Z,18.07
2022-09-15T17:48:16.451Z,17.58
2022-09-15T17:51:16.681Z,17.55
2022-09-15T17:56:29.413Z,17.59
2022-09-15T17:58:56.349Z,18.05
2022-09-15T18:01:35.159Z,18.12
2022-09-15T18:05:15.032Z,18.25
2022-09-15T18:12:13.119Z,17.98
2022-09-15T18:37:31.667Z,16.66
2022-09-15T18:39:58.820Z,16.62
2022-09-15T18:43:02.358Z,16.28
2022-09-15T18:46:08.454Z,16.75
2022-09-15T18:48:36.355Z,16.39
2022-09-15T18:51:19.466Z,16.56
2022-09-15T18:53:54.233Z,16.46
2022-09-15T18:56:23.271Z,16.69
2022-09-15T18:58:54.096Z,16.32
2022-09-15T19:01:23.529Z,16.67
2022-09-15T19:03:50.327Z,16.67
2022-09-15T19:06:17.282Z,16.77
2022-09-15T19:08:50.205Z,16.69
2022-09-15T19:11:18.071Z,16.72
2022-09-15T19:13:47.406Z,16.67
2022-09-15T19:16:15.532Z,16.80
2022-09-15T19:18:47.160Z,16.66
2022-09-15T19:21:14.243Z,16.60
2022-09-15T19:23:43.584Z,16.67
2022-09-15T19:26:22.551Z,16.64
2022-09-15T19:28:51.266Z,16.64
2022-09-15T19:31:28.397Z,16.67
2022-09-15T19:33:56.282Z,16.64
2022-09-15T19:36:30.158Z,16.62
2022-09-15T19:38:59.347Z,16.62
2022-09-15T19:41:26.867Z,16.54
2022-09-15T19:43:55.085Z,16.55
2022-09-15T19:46:25.274Z,16.55
2022-09-15T19:48:53.735Z,16.48
2022-09-15T19:51:23.404Z,16.48
2022-09-15T19:53:55.628Z,16.37
2022-09-15T19:56:26.432Z,16.32
2022-09-15T19:58:56.029Z,16.33
2022-09-15T20:01:24.372Z,16.29
2022-09-15T20:06:37.428Z,16.25
2022-09-15T20:09:04.664Z,16.21
2022-09-15T20:11:31.878Z,16.16
2022-09-15T20:14:02.090Z,16.15
2022-09-15T20:16:31.747Z,16.14
2022-09-15T20:18:59.570Z,16.11
2022-09-15T20:21:48.697Z,16.08
2022-09-15T20:24:16.217Z,16.04
2022-09-15T20:26:42.727Z,16.00
2022-09-15T20:29:10.740Z,16.01
2022-09-15T20:31:37.707Z,15.95
2022-09-15T20:34:04.686Z,15.90
2022-09-15T20:36:36.610Z,15.88
2022-09-15T20:39:12.017Z,15.88
2022-09-15T20:41:40.011Z,15.83
2022-09-15T20:44:09.490Z,15.83
2022-09-15T20:46:36.962Z,15.79
2022-09-15T20:49:04.695Z,15.78
2022-09-15T20:51:33.846Z,15.72
2022-09-15T20:54:02.137Z,15.70
2022-09-15T20:56:30.694Z,15.67
2022-09-15T20:58:59.098Z,15.62
2022-09-15T21:01:28.415Z,15.56
2022-09-15T21:03:55.722Z,15.50
2022-09-15T21:06:25.384Z,15.50
2022-09-15T21:08:53.302Z,15.43
2022-09-15T21:11:21.353Z,15.39
2022-09-15T21:13:48.635Z,15.33
2022-09-15T21:16:18.481Z,15.35
2022-09-15T21:18:45.732Z,15.30
2022-09-15T21:21:14.789Z,15.28
2022-09-15T21:23:46.792Z,15.23
2022-09-15T21:26:15.718Z,15.17
2022-09-15T21:28:43.581Z,15.14
2022-09-15T21:31:15.515Z,15.12
2022-09-15T21:33:42.703Z,15.08
2022-09-15T21:36:13.826Z,15.03
2022-09-15T21:38:42.227Z,14.98
2022-09-15T21:41:14.055Z,14.96
2022-09-15T21:43:42.262Z,14.93
2022-09-15T21:46:15.550Z,14.86
2022-09-15T21:48:42.348Z,14.84
2022-09-15T21:51:11.466Z,14.81
2022-09-15T21:53:38.196Z,14.79
2022-09-15T21:56:08.517Z,14.77
2022-09-15T21:58:42.406Z,14.74
2022-09-15T22:01:27.985Z,14.71
2022-09-15T22:04:00.284Z,14.68
2022-09-15T22:06:33.202Z,14.65
2022-09-15T22:09:05.966Z,14.61
2022-09-15T22:11:32.900Z,14.59
2022-09-15T22:14:01.891Z,14.55
2022-09-15T22:16:29.034Z,14.53
2022-09-15T22:18:55.612Z,14.29
2022-09-15T22:21:27.872Z,14.35
2022-09-15T22:23:56.707Z,14.40
2022-09-15T22:26:32.233Z,14.33
2022-09-15T22:28:59.937Z,14.23
2022-09-15T22:31:27.976Z,14.15
2022-09-15T22:33:55.357Z,14.24
2022-09-15T22:36:29.645Z,14.31
2022-09-15T22:39:03.945Z,14.28
2022-09-15T22:41:32.680Z,14.30
2022-09-15T22:43:59.319Z,14.31
2022-09-15T22:46:26.027Z,14.32
2022-09-15T22:48:52.676Z,14.35
2022-09-15T22:58:41.200Z,14.30
2022-09-15T23:01:14.409Z,14.31
2022-09-15T23:04:06.796Z,14.27
2022-09-15T23:10:49.686Z,14.28
2022-09-15T23:13:17.372Z,14.13
2022-09-15T23:15:43.966Z,14.18
2022-09-15T23:18:10.579Z,14.14
2022-09-15T23:20:39.496Z,13.96
2022-09-15T23:23:06.395Z,13.62
2022-09-15T23:25:32.890Z,13.74
2022-09-15T23:27:59.444Z,13.77
2022-09-15T23:30:25.986Z,13.69
2022-09-15T23:32:52.468Z,13.69
2022-09-15T23:35:18.964Z,13.50
2022-09-15T23:37:45.444Z,13.49
2022-09-15T23:40:12.209Z,13.71
2022-09-15T23:42:38.763Z,13.76
2022-09-15T23:45:05.775Z,13.79
2022-09-15T23:47:34.997Z,13.71
2022-09-15T23:50:01.585Z,13.83
2022-09-15T23:52:28.151Z,13.83
2022-09-15T23:54:54.704Z,13.85
2022-09-15T23:57:21.227Z,13.87
2022-09-15T23:59:47.724Z,13.85
